createdAt,value
2019-04-04T00:01:37.505Z,12.17
2019-04-04T00:04:06.750Z,12.50
2019-04-04T00:06:49.936Z,12.10
2019-04-04T00:09:19.349Z,12.57
2019-04-04T00:11:48.605Z,11.60
2019-04-04T00:14:17.995Z,11.97
2019-04-04T00:16:48.839Z,11.57
2019-04-04T00:19:19.165Z,11.97
2019-04-04T00:21:48.921Z,11.87
2019-04-04T00:24:18.980Z,12.13
2019-04-04T00:26:48.538Z,12.57
2019-04-04T00:29:17.907Z,11.93
2019-04-04T00:31:49.552Z,12.53
2019-04-04T00:34:18.527Z,12.50
2019-04-04T00:36:48.900Z,12.37
2019-04-04T00:39:18.112Z,12.33
2019-04-04T00:41:47.304Z,11.90
2019-04-04T00:44:17.128Z,11.27
2019-04-04T00:46:46.190Z,11.57
2019-04-04T00:49:15.645Z,11.40
2019-04-04T00:51:45.848Z,11.33
2019-04-04T00:54:15.135Z,12.17
2019-04-04T00:56:44.305Z,12.30
2019-04-04T00:59:13.525Z,11.60
2019-04-04T01:01:42.661Z,11.77
2019-04-04T01:04:11.993Z,11.87
2019-04-04T01:06:41.100Z,11.80
2019-04-04T01:09:13.231Z,10.97
2019-04-04T01:11:41.165Z,11.33
2019-04-04T01:14:10.601Z,11.27
2019-04-04T01:16:39.745Z,10.93
2019-04-04T01:19:10.370Z,11.05
2019-04-04T01:21:43.542Z,11.13
2019-04-04T01:24:18.001Z,11.40
2019-04-04T01:26:47.074Z,10.80
2019-04-04T01:29:17.753Z,11.10
2019-04-04T01:31:46.874Z,11.00
2019-04-04T01:34:31.316Z,10.18
2019-04-04T01:37:14.876Z,11.30
2019-04-04T01:39:44.361Z,10.87
2019-04-04T01:42:14.049Z,10.90
2019-04-04T01:44:43.237Z,10.33
2019-04-04T01:47:12.665Z,10.63
2019-04-04T01:49:42.205Z,10.40
2019-04-04T01:52:11.600Z,10.53
2019-04-04T01:54:41.272Z,10.07
2019-04-04T01:57:10.505Z,10.23
2019-04-04T01:59:39.616Z,10.03
2019-04-04T02:02:09.509Z,10.60
2019-04-04T02:16:51.541Z,10.67
2019-04-04T02:39:42.503Z,10.90
2019-04-04T02:51:06.947Z,9.88
2019-04-04T03:10:26.043Z,10.65
2019-04-04T03:14:18.281Z,10.33
2019-04-04T03:17:47.893Z,10.63
2019-04-04T03:21:22.235Z,11.27
2019-04-04T03:28:50.193Z,10.67
2019-04-04T03:32:42.383Z,11.20
2019-04-04T03:36:20.497Z,10.37
2019-04-04T03:43:17.595Z,11.60
2019-04-04T03:46:23.803Z,11.70
2019-04-04T03:54:27.369Z,10.60
2019-04-04T04:05:33.576Z,10.77
2019-04-04T04:12:54.600Z,10.80
2019-04-04T04:20:36.336Z,12.23
2019-04-04T04:28:19.841Z,11.40
2019-04-04T04:32:12.069Z,11.23
2019-04-04T04:43:43.903Z,11.45
2019-04-04T04:59:21.792Z,10.77
2019-04-04T05:22:12.817Z,10.90
2019-04-04T05:26:02.548Z,11.27
2019-04-04T05:29:17.498Z,11.23
2019-04-04T05:36:44.470Z,11.15
2019-04-04T05:52:04.464Z,11.37
2019-04-04T05:59:33.573Z,11.78
2019-04-04T06:18:44.279Z,11.80
2019-04-04T06:22:24.110Z,10.80
2019-04-04T06:29:47.574Z,12.20
2019-04-04T06:49:16.673Z,11.90
2019-04-04T06:54:25.130Z,12.10
2019-04-04T06:56:53.335Z,12.27
2019-04-04T06:59:22.762Z,11.78
2019-04-04T07:01:52.090Z,11.73
2019-04-04T07:04:21.673Z,11.60
2019-04-04T07:06:51.376Z,10.95
2019-04-04T07:09:20.697Z,11.87
2019-04-04T07:11:49.717Z,11.17
2019-04-04T07:14:18.881Z,11.22
2019-04-04T07:16:47.971Z,10.23
2019-04-04T07:19:18.028Z,10.33
2019-04-04T07:22:06.644Z,9.47
2019-04-04T07:24:36.249Z,10.80
2019-04-04T07:27:05.381Z,12.17
2019-04-04T07:29:56.574Z,10.07
2019-04-04T07:32:24.516Z,10.17
2019-04-04T07:34:53.921Z,9.47
2019-04-04T07:37:24.145Z,9.63
2019-04-04T07:39:53.255Z,9.40
2019-04-04T07:42:22.737Z,10.27
2019-04-04T07:44:54.382Z,9.63
2019-04-04T07:47:22.860Z,10.70
2019-04-04T07:49:53.204Z,10.63
2019-04-04T07:52:22.967Z,9.80
2019-04-04T07:54:52.736Z,10.07
2019-04-04T07:57:24.245Z,9.60
2019-04-04T07:59:53.453Z,10.00
2019-04-04T08:02:22.533Z,9.47
2019-04-04T08:04:51.662Z,9.20
2019-04-04T08:07:21.693Z,10.03
2019-04-04T08:09:50.819Z,9.90
2019-04-04T08:12:21.266Z,10.40
2019-04-04T08:15:09.537Z,8.70
2019-04-04T08:17:42.353Z,9.57
2019-04-04T08:20:12.299Z,9.33
2019-04-04T08:22:41.489Z,9.07
2019-04-04T08:25:11.631Z,9.78
2019-04-04T08:27:42.594Z,9.70
2019-04-04T08:30:12.334Z,9.20
2019-04-04T08:32:42.057Z,10.08
2019-04-04T08:35:11.365Z,8.63
2019-04-04T08:37:40.977Z,8.33
2019-04-04T08:40:10.387Z,9.05
2019-04-04T08:42:39.794Z,9.05
2019-04-04T08:45:08.957Z,9.33
2019-04-04T08:47:38.141Z,8.70
2019-04-04T08:50:07.444Z,8.53
2019-04-04T08:52:36.619Z,8.43
2019-04-04T08:55:06.377Z,9.07
2019-04-04T08:57:36.124Z,9.57
2019-04-04T09:00:07.594Z,9.23
2019-04-04T09:02:37.034Z,9.63
2019-04-04T09:05:12.157Z,9.20
2019-04-04T09:07:37.939Z,9.17
2019-04-04T09:10:09.709Z,9.13
2019-04-04T09:12:38.791Z,8.37
2019-04-04T09:15:09.492Z,8.47
2019-04-04T09:17:38.641Z,8.95
2019-04-04T09:20:11.662Z,8.80
2019-04-04T09:22:41.182Z,9.13
2019-04-04T09:25:10.866Z,8.28
2019-04-04T09:27:40.128Z,9.33
2019-04-04T09:30:29.505Z,8.90
2019-04-04T09:32:58.958Z,9.43
2019-04-04T09:35:28.041Z,9.35
2019-04-04T09:38:00.662Z,10.67
2019-04-04T09:40:30.245Z,10.00
2019-04-04T09:45:35.613Z,10.80
2019-04-04T09:48:04.766Z,9.90
2019-04-04T09:50:33.821Z,10.53
2019-04-04T09:53:03.309Z,10.13
2019-04-04T09:55:32.477Z,10.97
2019-04-04T09:58:02.033Z,12.10
2019-04-04T10:00:31.563Z,10.53
2019-04-04T10:03:00.877Z,10.47
2019-04-04T10:05:30.143Z,9.83
2019-04-04T10:07:59.364Z,10.30
2019-04-04T10:10:28.550Z,10.47
2019-04-04T10:12:57.777Z,11.67
2019-04-04T10:15:27.210Z,11.20
2019-04-04T10:17:56.413Z,10.77
2019-04-04T10:20:26.428Z,11.03
2019-04-04T10:22:55.816Z,11.23
2019-04-04T10:25:25.279Z,11.83
2019-04-04T10:27:54.640Z,11.87
2019-04-04T10:30:23.984Z,11.90
2019-04-04T10:32:53.085Z,10.80
2019-04-04T10:35:22.224Z,10.93
2019-04-04T10:37:51.476Z,11.75
2019-04-04T10:40:24.284Z,10.87
2019-04-04T10:42:53.646Z,11.20
2019-04-04T10:45:22.777Z,11.13
2019-04-04T10:47:52.016Z,12.37
2019-04-04T10:50:21.223Z,11.23
2019-04-04T10:52:50.828Z,11.80
2019-04-04T10:55:20.292Z,12.23
2019-04-04T10:58:08.605Z,11.47
2019-04-04T11:00:37.804Z,12.33
2019-04-04T11:03:07.142Z,11.17
2019-04-04T11:05:36.251Z,11.45
2019-04-04T11:08:08.889Z,11.57
2019-04-04T11:10:38.341Z,11.50
2019-04-04T11:13:07.781Z,11.33
2019-04-04T11:15:36.985Z,10.10
2019-04-04T11:18:07.401Z,10.98
2019-04-04T11:20:36.620Z,11.23
2019-04-04T11:23:25.041Z,11.77
2019-04-04T11:25:55.210Z,11.00
2019-04-04T11:28:25.479Z,11.00
2019-04-04T11:30:54.560Z,10.98
2019-04-04T11:33:23.656Z,10.30
2019-04-04T11:35:53.115Z,10.37
2019-04-04T11:38:22.900Z,11.67
2019-04-04T11:40:51.977Z,11.30
2019-04-04T11:43:21.185Z,11.90
2019-04-04T11:45:51.084Z,12.00
2019-04-04T11:48:20.517Z,10.90
2019-04-04T11:53:25.606Z,10.27
2019-04-04T11:55:54.893Z,11.78
2019-04-04T11:58:43.124Z,11.80
2019-04-04T12:01:12.804Z,11.50
2019-04-04T12:03:42.256Z,11.37
2019-04-04T12:06:12.856Z,12.00
2019-04-04T12:08:42.057Z,11.20
2019-04-04T12:11:11.277Z,10.50
2019-04-04T12:13:40.388Z,10.97
2019-04-04T12:16:25.039Z,11.37
2019-04-04T12:18:54.498Z,10.50
2019-04-04T12:21:23.987Z,10.23
2019-04-04T12:23:53.365Z,11.15
2019-04-04T12:26:22.471Z,11.53
2019-04-04T12:28:52.434Z,11.78
2019-04-04T12:31:23.060Z,10.97
2019-04-04T12:33:52.821Z,11.33
2019-04-04T12:36:24.742Z,11.83
2019-04-04T12:38:54.460Z,10.77
2019-04-04T12:41:23.614Z,11.97
2019-04-04T12:43:52.957Z,11.83
2019-04-04T12:46:22.049Z,11.73
2019-04-04T12:48:51.489Z,13.67
2019-04-04T12:51:20.593Z,11.80
2019-04-04T12:53:51.162Z,12.23
2019-04-04T12:56:20.663Z,12.33
2019-04-04T12:58:49.917Z,12.30
2019-04-04T13:01:21.295Z,12.33
2019-04-04T13:03:51.491Z,12.90
2019-04-04T13:06:20.858Z,13.13
2019-04-04T13:08:49.985Z,13.80
2019-04-04T13:11:19.172Z,13.30
2019-04-04T13:13:48.326Z,13.00
2019-04-04T13:16:17.465Z,13.03
2019-04-04T13:18:50.576Z,12.50
2019-04-04T13:21:21.484Z,14.20
2019-04-04T13:23:50.704Z,14.57
2019-04-04T13:26:19.835Z,14.53
2019-04-04T13:28:49.081Z,14.90
2019-04-04T13:31:18.461Z,16.20
2019-04-04T13:33:47.563Z,15.97
2019-04-04T13:36:21.057Z,17.10
2019-04-04T13:38:50.128Z,17.20
2019-04-04T13:41:22.294Z,16.37
2019-04-04T13:43:51.480Z,14.97
2019-04-04T13:46:29.226Z,15.00
2019-04-04T13:48:56.764Z,16.67
2019-04-04T13:51:26.949Z,17.33
2019-04-04T13:53:56.071Z,16.67
2019-04-04T13:56:25.504Z,16.33
2019-04-04T13:58:54.621Z,17.03
2019-04-04T14:01:25.351Z,18.83
2019-04-04T14:03:55.496Z,16.27
2019-04-04T14:06:25.041Z,16.57
2019-04-04T14:08:54.477Z,16.77
2019-04-04T14:11:24.060Z,16.33
2019-04-04T14:13:53.215Z,17.33
2019-04-04T14:16:22.465Z,16.37
2019-04-04T14:18:54.874Z,15.63
2019-04-04T14:21:24.106Z,15.70
2019-04-04T14:23:53.220Z,14.30
2019-04-04T14:26:22.423Z,16.17
2019-04-04T14:28:51.773Z,16.40
2019-04-04T14:31:22.513Z,16.53
2019-04-04T14:33:51.600Z,15.47
2019-04-04T14:36:21.169Z,14.87
2019-04-04T14:38:50.533Z,16.10
2019-04-04T14:41:19.628Z,15.13
2019-04-04T14:43:48.670Z,16.33
2019-04-04T14:46:17.781Z,15.80
2019-04-04T14:48:46.861Z,15.90
2019-04-04T14:51:16.009Z,15.60
2019-04-04T14:53:45.174Z,17.07
2019-04-04T14:56:14.328Z,17.30
2019-04-04T14:58:48.569Z,15.95
2019-04-04T15:01:18.209Z,16.03
2019-04-04T15:03:49.223Z,15.50
2019-04-04T15:06:18.367Z,14.70
2019-04-04T15:08:48.540Z,14.77
2019-04-04T15:11:24.012Z,15.30
2019-04-04T15:13:48.746Z,16.87
2019-04-04T15:16:18.938Z,16.97
2019-04-04T15:18:48.413Z,17.77
2019-04-04T15:21:17.918Z,18.00
2019-04-04T15:23:47.040Z,17.27
2019-04-04T15:26:20.278Z,16.30
2019-04-04T15:28:50.952Z,15.87
2019-04-04T15:31:20.273Z,13.75
2019-04-04T15:33:50.587Z,14.20
2019-04-04T15:36:19.804Z,13.32
2019-04-04T15:38:48.938Z,14.30
2019-04-04T15:41:18.089Z,12.63
2019-04-04T15:43:47.165Z,13.80
2019-04-04T15:46:16.501Z,14.90
2019-04-04T15:48:45.741Z,14.53
2019-04-04T15:51:15.037Z,15.73
2019-04-04T15:53:44.396Z,13.13
2019-04-04T15:56:13.696Z,13.10
2019-04-04T15:58:43.541Z,13.83
2019-04-04T16:01:12.797Z,14.10
2019-04-04T16:03:42.121Z,14.17
2019-04-04T16:06:11.806Z,13.63
2019-04-04T16:08:41.169Z,14.13
2019-04-04T16:11:10.250Z,14.00
2019-04-04T16:13:39.405Z,15.07
2019-04-04T16:16:08.974Z,14.50
2019-04-04T16:18:38.419Z,15.07
2019-04-04T16:21:07.555Z,14.77
2019-04-04T16:23:36.704Z,15.30
2019-04-04T16:26:06.180Z,14.90
2019-04-04T16:28:35.699Z,16.63
2019-04-04T16:31:06.287Z,18.43
2019-04-04T16:36:10.735Z,14.97
2019-04-04T16:38:39.863Z,15.10
2019-04-04T16:41:09.136Z,14.40
2019-04-04T16:43:38.384Z,14.20
2019-04-04T16:46:07.905Z,13.73
2019-04-04T16:48:37.353Z,12.93
2019-04-04T16:51:11.004Z,14.60
2019-04-04T16:53:40.549Z,14.35
2019-04-04T16:56:09.685Z,15.17
2019-04-04T16:58:39.066Z,15.17
2019-04-04T17:01:08.216Z,16.37
2019-04-04T17:03:37.385Z,14.40
2019-04-04T17:06:06.513Z,15.77
2019-04-04T17:08:35.876Z,15.23
2019-04-04T17:11:05.157Z,15.20
2019-04-04T17:13:35.106Z,16.00
2019-04-04T17:16:04.372Z,15.33
2019-04-04T17:18:33.671Z,15.17
2019-04-04T17:21:02.977Z,15.55
2019-04-04T17:23:32.369Z,16.10
2019-04-04T17:26:02.105Z,16.10
2019-04-04T17:28:31.301Z,16.03
2019-04-04T17:31:01.212Z,15.35
2019-04-04T17:33:30.966Z,16.10
2019-04-04T17:36:00.341Z,14.90
2019-04-04T17:38:29.705Z,17.20
2019-04-04T17:40:59.164Z,14.50
2019-04-04T17:43:29.257Z,14.70
2019-04-04T17:45:58.733Z,14.17
2019-04-04T17:48:28.443Z,15.40
2019-04-04T17:50:58.921Z,14.80
2019-04-04T17:53:28.534Z,14.50
2019-04-04T17:56:02.125Z,14.27
2019-04-04T17:58:32.353Z,15.20
2019-04-04T18:01:01.664Z,15.13
2019-04-04T18:03:30.781Z,14.68
2019-04-04T18:05:59.931Z,15.55
2019-04-04T18:08:29.002Z,13.15
2019-04-04T18:10:58.372Z,14.67
2019-04-04T18:13:28.459Z,14.83
2019-04-04T18:15:57.835Z,14.07
2019-04-04T18:18:28.704Z,14.98
2019-04-04T18:20:57.859Z,14.80
2019-04-04T18:23:27.346Z,15.50
2019-04-04T18:25:58.645Z,16.27
2019-04-04T18:28:27.819Z,14.97
2019-04-04T18:30:56.950Z,15.60
2019-04-04T18:33:26.385Z,17.10
2019-04-04T18:35:56.054Z,16.47
2019-04-04T18:38:25.305Z,15.80
2019-04-04T18:40:54.388Z,16.00
2019-04-04T18:43:24.225Z,15.48
2019-04-04T18:45:53.760Z,16.97
2019-04-04T18:48:22.920Z,17.15
2019-04-04T18:50:52.586Z,17.43
2019-04-04T18:53:22.201Z,16.50
2019-04-04T18:55:51.322Z,17.40
2019-04-04T18:58:21.281Z,17.37
2019-04-04T19:00:50.692Z,17.93
2019-04-04T19:03:20.305Z,17.40
2019-04-04T19:05:49.725Z,17.70
2019-04-04T19:08:18.957Z,18.07
2019-04-04T19:10:48.701Z,17.53
2019-04-04T19:13:17.908Z,18.33
2019-04-04T19:15:47.137Z,17.97
2019-04-04T19:18:17.012Z,17.32
2019-04-04T19:20:46.108Z,17.97
2019-04-04T19:23:15.175Z,18.87
2019-04-04T19:25:44.284Z,18.10
2019-04-04T19:28:13.440Z,17.87
2019-04-04T19:30:43.149Z,18.10
2019-04-04T19:33:43.918Z,17.43
2019-04-04T19:36:13.989Z,18.20
2019-04-04T19:38:43.418Z,17.47
2019-04-04T19:41:12.620Z,18.83
2019-04-04T19:43:42.173Z,17.00
2019-04-04T19:46:11.334Z,16.73
2019-04-04T19:48:40.863Z,16.90
2019-04-04T19:51:10.043Z,17.53
2019-04-04T19:53:39.688Z,16.23
2019-04-04T19:56:08.922Z,15.87
2019-04-04T19:58:38.036Z,15.53
2019-04-04T20:01:07.433Z,16.73
2019-04-04T20:03:36.948Z,16.50
2019-04-04T20:06:06.207Z,15.40
2019-04-04T20:08:35.300Z,15.70
2019-04-04T20:11:06.068Z,16.23
2019-04-04T20:13:35.157Z,15.20
2019-04-04T20:16:04.349Z,16.60
2019-04-04T20:18:33.534Z,16.57
2019-04-04T20:21:02.784Z,16.15
2019-04-04T20:23:31.882Z,16.10
2019-04-04T20:26:01.070Z,16.60
2019-04-04T20:28:30.144Z,16.37
2019-04-04T20:30:59.605Z,16.40
2019-04-04T20:33:28.701Z,17.17
2019-04-04T20:35:58.217Z,16.93
2019-04-04T20:38:27.893Z,17.30
2019-04-04T20:40:57.328Z,17.27
2019-04-04T20:43:26.537Z,17.57
2019-04-04T20:45:55.676Z,17.90
2019-04-04T20:48:25.433Z,19.07
2019-04-04T20:50:55.104Z,17.80
2019-04-04T20:53:24.583Z,20.13
2019-04-04T20:55:54.188Z,17.63
2019-04-04T20:58:23.896Z,18.00
2019-04-04T21:00:53.069Z,19.23
2019-04-04T21:03:23.125Z,18.87
2019-04-04T21:05:52.560Z,19.37
2019-04-04T21:10:57.497Z,18.00
2019-04-04T21:13:26.596Z,17.40
2019-04-04T21:15:56.094Z,17.93
2019-04-04T21:18:27.021Z,18.27
2019-04-04T21:20:56.497Z,18.80
2019-04-04T21:23:25.684Z,19.40
2019-04-04T21:25:54.880Z,19.00
2019-04-04T21:28:24.267Z,19.62
2019-04-04T21:30:53.481Z,19.25
2019-04-04T21:33:22.678Z,18.30
2019-04-04T21:35:52.194Z,18.37
2019-04-04T21:38:21.665Z,18.23
2019-04-04T21:40:51.237Z,18.13
2019-04-04T21:43:20.383Z,18.73
2019-04-04T21:45:49.476Z,19.03
2019-04-04T21:48:18.688Z,19.00
2019-04-04T21:53:23.198Z,18.07
2019-04-04T21:55:53.245Z,18.48
2019-04-04T21:58:24.125Z,18.67
2019-04-04T22:00:55.875Z,18.80
2019-04-04T22:03:25.469Z,18.37
2019-04-04T22:05:54.615Z,20.17
2019-04-04T22:08:24.073Z,18.93
2019-04-04T22:10:53.575Z,18.77
2019-04-04T22:13:22.718Z,19.47
2019-04-04T22:15:51.917Z,19.90
2019-04-04T22:18:21.358Z,19.87
2019-04-04T22:20:50.601Z,19.23
2019-04-04T22:23:19.766Z,18.70
2019-04-04T22:25:49.204Z,18.80
2019-04-04T22:28:19.210Z,19.73
2019-04-04T22:30:49.097Z,18.83
2019-04-04T22:33:18.330Z,18.80
2019-04-04T22:35:47.585Z,18.87
2019-04-04T22:38:16.753Z,18.20
2019-04-04T22:40:46.218Z,19.13
2019-04-04T22:43:15.304Z,19.57
2019-04-04T22:45:44.848Z,19.97
2019-04-04T22:48:13.980Z,18.83
2019-04-04T22:50:43.061Z,19.27
2019-04-04T22:53:12.873Z,19.17
2019-04-04T22:55:43.808Z,19.07
2019-04-04T22:58:28.185Z,18.57
2019-04-04T23:00:52.416Z,19.23
2019-04-04T23:03:22.794Z,19.50
2019-04-04T23:05:52.525Z,19.53
2019-04-04T23:08:21.652Z,19.53
2019-04-04T23:10:50.806Z,19.00
2019-04-04T23:13:19.925Z,19.23
2019-04-04T23:15:49.088Z,17.67
2019-04-04T23:18:18.449Z,18.73
2019-04-04T23:20:47.596Z,17.83
2019-04-04T23:23:17.308Z,18.55
2019-04-04T23:25:46.829Z,20.10
2019-04-04T23:28:15.963Z,18.47
2019-04-04T23:30:45.620Z,20.00
2019-04-04T23:33:15.238Z,20.73
2019-04-04T23:35:44.458Z,19.10
2019-04-04T23:38:13.845Z,18.87
2019-04-04T23:40:42.956Z,19.43
2019-04-04T23:43:12.032Z,19.52
2019-04-04T23:45:41.481Z,18.57
2019-04-04T23:48:29.778Z,19.90
2019-04-04T23:50:58.972Z,20.17
2019-04-04T23:53:28.160Z,19.03
2019-04-04T23:55:57.256Z,19.47
2019-04-04T23:58:26.361Z,20.97
